Time;durP1;ratioP1;P1;durP2;ratioP2;P2;SDS_P1;SDS_P2;PMS_P1;PMS_P2;Temp;Humidity;BMP_temperature;BMP_pressure;BME280_temperature;BME280_humidity;BME280_pressure;Samples;Min_cycle;Max_cycle;Signal;HPM_P1;HPM_P2
2022/04/18 00:01:56;;;;;;;7.73;4.50;;;1.40;99.90;;;;;;5095869;28;20208;-66
2022/04/18 00:04:23;;;;;;;7.10;4.10;;;1.50;99.90;;;;;;5095657;28;20206;-66
2022/04/18 00:06:50;;;;;;;10.03;4.70;;;1.50;99.90;;;;;;5095833;28;20214;-67
2022/04/18 00:09:17;;;;;;;5.70;4.30;;;1.50;99.90;;;;;;5095214;28;20212;-65
2022/04/18 00:11:44;;;;;;;7.43;4.60;;;1.60;99.90;;;;;;5095672;28;20204;-66
2022/04/18 00:14:11;;;;;;;6.80;4.40;;;1.50;99.90;;;;;;5095446;28;20295;-65
2022/04/18 00:16:39;;;;;;;9.00;5.07;;;1.50;99.90;;;;;;5095257;28;20224;-66
2022/04/18 00:19:06;;;;;;;7.93;4.63;;;1.60;99.90;;;;;;5095502;28;20203;-67
2022/04/18 00:21:32;;;;;;;6.07;4.07;;;1.60;99.90;;;;;;5095298;28;20208;-66
2022/04/18 00:23:59;;;;;;;8.03;4.27;;;1.60;99.90;;;;;;5095420;28;20206;-66
2022/04/18 00:26:26;;;;;;;6.63;4.40;;;1.60;99.90;;;;;;5094930;28;20207;-67
2022/04/18 00:28:53;;;;;;;8.17;4.60;;;1.60;99.90;;;;;;5095421;28;20225;-65
2022/04/18 00:31:20;;;;;;;7.60;4.60;;;1.70;99.90;;;;;;5094737;28;20220;-65
2022/04/18 00:33:48;;;;;;;6.10;4.13;;;1.70;99.90;;;;;;5095262;28;20324;-66
2022/04/18 00:36:14;;;;;;;7.43;4.70;;;1.70;99.90;;;;;;5095049;28;20430;-67
2022/04/18 00:38:44;;;;;;;7.67;4.33;;;1.70;99.90;;;;;;5095241;28;20226;-66
2022/04/18 00:41:11;;;;;;;8.63;4.80;;;1.70;99.90;;;;;;5094567;28;20323;-66
2022/04/18 00:43:42;;;;;;;6.53;4.10;;;1.70;99.90;;;;;;5094876;28;20240;-66
2022/04/18 00:46:10;;;;;;;6.00;4.00;;;1.70;99.90;;;;;;5094862;28;20207;-65
2022/04/18 00:48:37;;;;;;;7.93;4.27;;;1.60;99.90;;;;;;5094689;28;20222;-66
2022/04/18 00:51:07;;;;;;;8.87;4.23;;;1.70;99.90;;;;;;5094664;28;20204;-66
2022/04/18 00:53:35;;;;;;;8.07;4.37;;;1.70;99.90;;;;;;5094949;28;20200;-67
2022/04/18 00:56:02;;;;;;;6.37;4.27;;;1.70;99.90;;;;;;5094540;28;20208;-66
2022/04/18 00:58:29;;;;;;;7.73;4.30;;;1.60;99.90;;;;;;5094254;28;20212;-66
2022/04/18 01:00:56;;;;;;;6.63;4.20;;;1.70;99.90;;;;;;5094676;28;20595;-67
2022/04/18 01:03:23;;;;;;;6.87;4.20;;;1.80;99.90;;;;;;5093885;28;20200;-67
2022/04/18 01:05:50;;;;;;;8.67;4.40;;;1.70;99.90;;;;;;5094309;28;20241;-66
2022/04/18 01:08:19;;;;;;;7.53;4.40;;;1.80;99.90;;;;;;5094324;28;20207;-66
2022/04/18 01:10:45;;;;;;;7.97;3.90;;;1.80;99.90;;;;;;5094568;28;20230;-65
2022/04/18 01:13:12;;;;;;;5.87;3.70;;;1.90;99.90;;;;;;5094499;28;20214;-65
2022/04/18 01:15:39;;;;;;;7.93;4.33;;;1.90;99.90;;;;;;5094504;28;20199;-65
2022/04/18 01:18:06;;;;;;;6.87;4.17;;;1.90;99.90;;;;;;5094066;28;20289;-66
2022/04/18 01:20:35;;;;;;;8.00;4.50;;;1.80;99.90;;;;;;5093949;28;20231;-65
2022/04/18 01:23:06;;;;;;;6.77;4.23;;;1.70;99.90;;;;;;5094399;28;20204;-65
2022/04/18 01:31:01;;;;;;;6.57;4.07;;;1.50;99.90;;;;;;5094045;28;20184;-66
2022/04/18 01:33:29;;;;;;;7.43;4.60;;;1.50;99.90;;;;;;5094252;28;20569;-66
2022/04/18 01:35:56;;;;;;;5.43;4.20;;;1.50;99.90;;;;;;5094108;28;20227;-68
2022/04/18 01:38:25;;;;;;;8.07;4.90;;;1.50;99.90;;;;;;5093819;28;20566;-65
2022/04/18 01:40:52;;;;;;;7.57;4.53;;;1.50;99.90;;;;;;5093923;28;20702;-66
2022/04/18 01:43:19;;;;;;;6.17;4.40;;;1.60;99.90;;;;;;5093959;28;20226;-66
2022/04/18 01:45:46;;;;;;;6.87;4.23;;;1.60;99.90;;;;;;5094410;28;20214;-67
2022/04/18 01:48:12;;;;;;;7.03;4.50;;;1.60;99.90;;;;;;5094061;28;20203;-67
2022/04/18 01:50:39;;;;;;;10.57;4.33;;;1.50;99.90;;;;;;5093714;28;20206;-66
2022/04/18 01:53:06;;;;;;;6.00;4.50;;;1.60;99.90;;;;;;5093636;28;20207;-67
2022/04/18 01:55:35;;;;;;;7.27;4.13;;;1.60;99.90;;;;;;5093280;28;20204;-65
2022/04/18 01:58:02;;;;;;;6.87;4.60;;;1.50;99.90;;;;;;5093282;28;20365;-65
2022/04/18 02:00:28;;;;;;;6.27;4.33;;;1.50;99.90;;;;;;5093509;28;20224;-66
2022/04/18 02:02:55;;;;;;;6.47;4.50;;;1.60;99.90;;;;;;5093202;28;20211;-66
2022/04/18 02:05:22;;;;;;;5.43;4.27;;;1.60;99.90;;;;;;5093373;28;20270;-66
2022/04/18 02:07:49;;;;;;;7.33;4.33;;;1.60;99.90;;;;;;5093450;28;20662;-65
2022/04/18 02:10:16;;;;;;;7.67;4.27;;;1.60;99.90;;;;;;5092990;28;20551;-66
2022/04/18 02:12:44;;;;;;;7.67;4.67;;;1.60;99.90;;;;;;5093194;28;20215;-67
2022/04/18 02:15:11;;;;;;;7.57;4.50;;;1.60;99.90;;;;;;5092180;28;20219;-65
2022/04/18 02:17:38;;;;;;;7.27;4.37;;;1.70;99.90;;;;;;5092976;28;20204;-66
2022/04/18 02:20:06;;;;;;;7.70;4.50;;;1.70;99.90;;;;;;5093040;28;20223;-65
2022/04/18 02:22:33;;;;;;;8.87;4.90;;;1.70;99.90;;;;;;5092890;28;20298;-67
2022/04/18 02:25:00;;;;;;;6.10;4.33;;;1.70;99.90;;;;;;5092681;28;20208;-66
2022/04/18 02:27:27;;;;;;;6.33;4.30;;;1.70;99.90;;;;;;5093028;28;20203;-66
2022/04/18 02:29:55;;;;;;;6.53;4.60;;;1.70;99.90;;;;;;5092816;28;20200;-66
2022/04/18 02:35:07;;;;;;;7.37;4.73;;;1.80;99.90;;;;;;5092516;28;20672;-67
2022/04/18 02:37:34;;;;;;;6.57;4.70;;;1.70;99.90;;;;;;5092807;28;20204;-66
2022/04/18 02:40:01;;;;;;;7.70;4.87;;;1.70;99.90;;;;;;5092699;28;20204;-66
2022/04/18 02:42:28;;;;;;;6.60;4.70;;;1.70;99.90;;;;;;5093127;28;20675;-67
2022/04/18 02:44:56;;;;;;;8.73;5.23;;;1.70;99.90;;;;;;5092084;28;20235;-66
2022/04/18 02:47:23;;;;;;;7.50;4.73;;;1.70;99.90;;;;;;5092750;28;20346;-67
2022/04/18 02:49:51;;;;;;;6.97;4.53;;;1.80;99.90;;;;;;5092782;28;20581;-66
2022/04/18 02:52:17;;;;;;;7.67;4.73;;;1.90;99.90;;;;;;5092824;28;20204;-66
2022/04/18 02:54:44;;;;;;;7.80;4.37;;;1.90;99.90;;;;;;5092702;28;20670;-65
2022/04/18 02:57:12;;;;;;;6.47;4.43;;;2.00;99.90;;;;;;5092453;28;20302;-67
2022/04/18 02:59:38;;;;;;;7.67;4.70;;;2.00;99.90;;;;;;5092598;28;20636;-66
2022/04/18 03:02:07;;;;;;;7.50;4.20;;;2.10;99.90;;;;;;5092897;28;20227;-65
2022/04/18 03:04:34;;;;;;;6.70;4.30;;;2.10;99.90;;;;;;5093851;28;20662;-66
2022/04/18 03:07:01;;;;;;;8.50;4.63;;;2.00;99.90;;;;;;5092205;28;20207;-66
2022/04/18 03:09:28;;;;;;;9.00;4.87;;;1.90;99.90;;;;;;5092399;28;20657;-65
2022/04/18 03:11:56;;;;;;;8.23;5.90;;;1.90;99.90;;;;;;5092242;28;20234;-67
2022/04/18 03:14:23;;;;;;;11.27;7.00;;;1.90;99.90;;;;;;5092061;28;20222;-65
2022/04/18 03:16:50;;;;;;;13.67;8.43;;;1.90;99.90;;;;;;5092108;28;20558;-65
2022/04/18 03:19:18;;;;;;;10.53;7.73;;;1.90;99.90;;;;;;5092149;28;20593;-65
2022/04/18 03:21:45;;;;;;;11.40;7.60;;;1.90;99.90;;;;;;5092067;28;20224;-67
2022/04/18 03:24:12;;;;;;;9.23;6.97;;;1.90;99.90;;;;;;5091925;28;20212;-66
2022/04/18 03:26:39;;;;;;;10.37;7.57;;;1.90;99.90;;;;;;5091896;28;20207;-66
2022/04/18 03:29:05;;;;;;;12.83;8.07;;;1.90;99.90;;;;;;5091739;28;20210;-67
2022/04/18 03:31:32;;;;;;;11.17;7.33;;;1.90;99.90;;;;;;5092061;28;20224;-66
2022/04/18 03:33:59;;;;;;;10.73;6.83;;;1.90;99.90;;;;;;5091957;28;20666;-67
2022/04/18 03:41:56;;;;;;;6.60;4.10;;;1.80;99.90;;;;;;5091646;28;20211;-65
2022/04/18 03:44:23;;;;;;;9.40;4.50;;;1.70;99.90;;;;;;5091731;28;20232;-66
2022/04/18 03:46:50;;;;;;;5.07;3.93;;;1.70;99.90;;;;;;5090751;28;20278;-66
2022/04/18 03:49:18;;;;;;;6.70;4.10;;;1.80;99.90;;;;;;5091952;28;20204;-68
2022/04/18 03:51:46;;;;;;;5.60;3.90;;;1.80;99.90;;;;;;5091855;28;20624;-66
2022/04/18 03:54:13;;;;;;;5.23;4.07;;;1.80;99.90;;;;;;5091695;28;20204;-66
2022/04/18 03:56:40;;;;;;;7.10;4.20;;;1.80;99.90;;;;;;5091713;28;20204;-66
2022/04/18 03:59:06;;;;;;;7.07;4.27;;;1.80;99.90;;;;;;5091553;28;20204;-67
2022/04/18 04:01:33;;;;;;;6.13;4.17;;;1.70;99.90;;;;;;5091755;28;20227;-65
2022/04/18 04:04:00;;;;;;;6.63;4.23;;;1.70;99.90;;;;;;5091645;28;20211;-66
2022/04/18 04:06:27;;;;;;;6.93;4.50;;;1.70;99.90;;;;;;5091546;28;20200;-67
2022/04/18 04:08:55;;;;;;;5.63;4.10;;;1.70;99.90;;;;;;5091751;28;20212;-66
2022/04/18 04:11:22;;;;;;;5.67;4.17;;;1.70;99.90;;;;;;5091446;28;20200;-67
2022/04/18 04:13:49;;;;;;;9.10;3.90;;;1.70;99.90;;;;;;5091623;28;20204;-66
2022/04/18 04:16:16;;;;;;;7.47;4.53;;;1.70;99.90;;;;;;5091481;28;20219;-66
2022/04/18 04:18:42;;;;;;;7.70;4.13;;;1.70;99.90;;;;;;5091544;28;20666;-67
2022/04/18 04:21:09;;;;;;;6.43;4.80;;;1.70;99.90;;;;;;5091405;28;20218;-66
2022/04/18 04:23:36;;;;;;;6.60;4.70;;;1.70;99.90;;;;;;5091362;28;20200;-66
2022/04/18 04:26:04;;;;;;;6.97;4.43;;;1.70;99.90;;;;;;5091493;28;20563;-66
2022/04/18 04:28:31;;;;;;;5.73;4.10;;;1.70;99.90;;;;;;5091606;28;20200;-66
2022/04/18 04:30:58;;;;;;;6.13;4.13;;;1.60;99.90;;;;;;5091444;28;20559;-66
2022/04/18 04:33:24;;;;;;;6.33;4.57;;;1.60;99.90;;;;;;5091592;28;20200;-66
2022/04/18 04:35:51;;;;;;;6.33;4.60;;;1.60;99.90;;;;;;5091504;28;20685;-67
2022/04/18 04:38:18;;;;;;;5.23;4.10;;;1.60;99.90;;;;;;5094241;28;20207;-66
2022/04/18 04:40:45;;;;;;;5.47;4.23;;;1.60;99.90;;;;;;5095165;28;20310;-67
2022/04/18 04:43:13;;;;;;;8.47;4.60;;;1.60;99.90;;;;;;5094902;28;20204;-67
2022/04/18 04:45:40;;;;;;;6.70;4.77;;;1.60;99.90;;;;;;5094804;28;20739;-67
2022/04/18 04:48:07;;;;;;;6.23;4.43;;;1.50;99.90;;;;;;5094895;28;20207;-68
2022/04/18 04:50:34;;;;;;;7.27;4.80;;;1.50;99.90;;;;;;5095174;28;20575;-66
2022/04/18 04:53:01;;;;;;;9.07;4.73;;;1.50;99.90;;;;;;5095070;28;20657;-67
2022/04/18 04:55:28;;;;;;;6.17;4.47;;;1.60;99.90;;;;;;5095025;28;20283;-66
2022/04/18 04:57:55;;;;;;;8.90;4.60;;;1.60;99.90;;;;;;5094508;28;20265;-66
2022/04/18 05:00:24;;;;;;;8.90;4.67;;;1.60;99.90;;;;;;5094737;28;20567;-65
2022/04/18 05:02:51;;;;;;;7.50;4.90;;;1.60;99.90;;;;;;5094199;28;20623;-67
2022/04/18 05:05:18;;;;;;;7.20;4.67;;;1.70;99.90;;;;;;5094724;28;20654;-66
2022/04/18 05:07:45;;;;;;;6.83;4.10;;;1.80;99.90;;;;;;5094515;28;20208;-67
2022/04/18 05:10:11;;;;;;;7.23;4.90;;;1.80;99.90;;;;;;5094669;28;20211;-68
2022/04/18 05:12:38;;;;;;;7.13;4.80;;;1.90;99.90;;;;;;5094014;28;20208;-66
2022/04/18 05:15:06;;;;;;;9.63;5.30;;;2.00;99.90;;;;;;5094121;28;20207;-66
2022/04/18 05:17:35;;;;;;;6.43;4.73;;;2.00;99.90;;;;;;5094309;28;20212;-67
2022/04/18 05:20:03;;;;;;;5.33;4.33;;;2.10;99.90;;;;;;5094503;28;20204;-66
2022/04/18 05:22:30;;;;;;;6.63;4.60;;;2.10;99.90;;;;;;5094143;28;20224;-67
2022/04/18 05:24:57;;;;;;;7.63;4.80;;;2.10;99.90;;;;;;5094253;28;20204;-67
2022/04/18 05:27:24;;;;;;;6.60;4.87;;;2.10;99.90;;;;;;5094229;28;20654;-68
2022/04/18 05:29:51;;;;;;;9.43;4.93;;;2.20;99.90;;;;;;5093643;28;20204;-67
2022/04/18 05:32:18;;;;;;;6.50;5.03;;;2.20;99.90;;;;;;5094101;28;20220;-66
2022/04/18 05:34:46;;;;;;;9.67;5.10;;;2.30;99.90;;;;;;5093436;28;20204;-68
2022/04/18 05:37:13;;;;;;;7.73;5.23;;;2.40;99.90;;;;;;5094114;28;20298;-66
2022/04/18 05:39:40;;;;;;;6.77;4.97;;;2.40;99.90;;;;;;5093757;28;20207;-68
2022/04/18 05:42:07;;;;;;;7.73;4.80;;;2.40;99.90;;;;;;5093956;28;20547;-66
2022/04/18 05:44:35;;;;;;;7.40;5.10;;;2.40;99.90;;;;;;5093490;28;20232;-66
2022/04/18 05:47:01;;;;;;;8.43;5.73;;;2.40;99.90;;;;;;5094065;28;20204;-68
2022/04/18 05:49:28;;;;;;;8.23;5.17;;;2.40;99.90;;;;;;5093122;28;20351;-67
2022/04/18 05:51:56;;;;;;;7.60;5.40;;;2.40;99.90;;;;;;5093832;28;20200;-67
2022/04/18 05:54:23;;;;;;;7.80;5.30;;;2.40;99.90;;;;;;5093902;28;20279;-66
2022/04/18 05:56:50;;;;;;;8.30;4.77;;;2.40;99.90;;;;;;5093145;28;20242;-67
2022/04/18 05:59:17;;;;;;;7.63;5.00;;;2.40;99.90;;;;;;5093231;28;20228;-67
2022/04/18 06:01:44;;;;;;;8.17;5.20;;;2.40;99.90;;;;;;5093380;28;20255;-65
2022/04/18 06:04:10;;;;;;;7.10;5.40;;;2.50;99.90;;;;;;5093262;28;20654;-69
2022/04/18 06:06:37;;;;;;;6.57;4.93;;;2.60;99.90;;;;;;5093152;28;20223;-67
2022/04/18 06:09:05;;;;;;;7.47;5.03;;;2.60;99.90;;;;;;5093065;28;20641;-67
2022/04/18 06:11:32;;;;;;;8.97;5.30;;;2.60;99.90;;;;;;5093359;28;20207;-66
2022/04/18 06:13:59;;;;;;;7.67;5.60;;;2.60;99.90;;;;;;5093015;28;20208;-66
2022/04/18 06:16:26;;;;;;;9.07;5.60;;;2.60;99.90;;;;;;5092846;28;20207;-68
2022/04/18 06:18:52;;;;;;;8.40;5.07;;;2.60;99.90;;;;;;5093309;28;20211;-67
2022/04/18 06:21:19;;;;;;;7.70;4.83;;;2.70;99.90;;;;;;5093349;28;20730;-68
2022/04/18 06:23:46;;;;;;;7.80;5.20;;;2.70;99.90;;;;;;5092687;28;20200;-66
2022/04/18 06:26:14;;;;;;;7.33;4.80;;;2.80;99.90;;;;;;5093195;28;20346;-68
2022/04/18 06:28:41;;;;;;;6.37;4.83;;;2.90;99.90;;;;;;5093452;28;20640;-67
2022/04/18 06:31:08;;;;;;;8.10;4.70;;;2.90;99.90;;;;;;5093047;28;20629;-66
2022/04/18 06:33:35;;;;;;;6.70;4.83;;;2.90;99.90;;;;;;5092964;28;20668;-66
2022/04/18 06:36:02;;;;;;;7.87;5.80;;;3.00;99.90;;;;;;5092889;28;20210;-66
2022/04/18 06:38:29;;;;;;;9.87;5.47;;;3.00;99.90;;;;;;5092377;28;20214;-68
2022/04/18 06:40:57;;;;;;;8.97;5.20;;;3.10;99.90;;;;;;5092649;28;20204;-65
2022/04/18 06:43:26;;;;;;;9.20;5.30;;;3.30;99.90;;;;;;5092790;28;20223;-69
2022/04/18 06:45:52;;;;;;;7.00;5.33;;;3.30;99.90;;;;;;5092961;28;20211;-65
2022/04/18 06:48:19;;;;;;;7.30;4.77;;;3.40;99.90;;;;;;5092735;28;20224;-66
2022/04/18 06:50:46;;;;;;;6.13;4.47;;;3.40;99.90;;;;;;5092414;28;20211;-67
2022/04/18 06:53:13;;;;;;;8.43;5.20;;;3.40;99.90;;;;;;5092775;28;20302;-66
2022/04/18 06:58:26;;;;;;;5.53;4.57;;;3.40;99.90;;;;;;5092253;28;20756;-69
2022/04/18 07:00:53;;;;;;;6.87;5.20;;;3.40;99.90;;;;;;5092361;28;20211;-66
2022/04/18 07:03:20;;;;;;;8.63;4.97;;;3.40;99.90;;;;;;5092511;28;20227;-70
2022/04/18 07:05:48;;;;;;;6.67;4.90;;;3.40;99.90;;;;;;5092640;28;20214;-66
2022/04/18 07:08:15;;;;;;;7.20;4.87;;;3.50;99.90;;;;;;5092536;28;20199;-66
2022/04/18 07:10:42;;;;;;;7.30;4.50;;;3.60;99.90;;;;;;5092535;28;20204;-66
2022/04/18 07:13:09;;;;;;;7.87;5.10;;;3.60;99.90;;;;;;5092228;28;20308;-67
2022/04/18 07:15:37;;;;;;;7.63;4.43;;;3.60;99.90;;;;;;5092168;28;20210;-66
2022/04/18 07:18:04;;;;;;;7.70;4.93;;;3.60;99.90;;;;;;5092294;28;20211;-69
2022/04/18 07:20:31;;;;;;;9.13;5.17;;;3.60;99.90;;;;;;5092138;28;20208;-65
2022/04/18 07:22:58;;;;;;;7.43;4.90;;;3.60;99.90;;;;;;5092395;28;20230;-66
2022/04/18 07:25:25;;;;;;;10.33;4.57;;;3.70;99.90;;;;;;5092192;28;20206;-68
2022/04/18 07:27:51;;;;;;;5.83;4.50;;;3.70;99.90;;;;;;5092061;28;20204;-66
2022/04/18 07:30:18;;;;;;;10.00;5.03;;;3.80;99.90;;;;;;5091886;28;20220;-66
2022/04/18 07:32:46;;;;;;;5.67;4.07;;;3.70;99.90;;;;;;5091897;28;20202;-67
2022/04/18 07:35:13;;;;;;;6.63;4.33;;;3.70;99.90;;;;;;5091495;28;20673;-66
2022/04/18 07:38:48;;;;;;;5.13;3.90;;;3.80;99.90;;;;;;5092052;28;20211;-65
2022/04/18 07:40:29;;;;;;;6.33;4.50;;;3.80;99.90;;;;;;5091432;28;20729;-67
2022/04/18 07:42:55;;;;;;;6.63;4.80;;;3.80;99.90;;;;;;5091818;28;20573;-66
2022/04/18 07:45:22;;;;;;;7.33;4.47;;;3.90;99.90;;;;;;5091381;28;20723;-66
2022/04/18 07:47:52;;;;;;;7.23;4.60;;;4.00;99.90;;;;;;5091784;28;20214;-67
2022/04/18 07:50:19;;;;;;;6.47;4.87;;;4.10;99.90;;;;;;5091753;28;20616;-66
2022/04/18 07:52:46;;;;;;;8.07;5.20;;;4.10;99.90;;;;;;5091810;28;20226;-67
2022/04/18 07:55:13;;;;;;;6.37;4.80;;;4.10;99.90;;;;;;5091825;28;20200;-68
2022/04/18 07:57:39;;;;;;;7.97;5.03;;;4.00;99.90;;;;;;5091615;28;20210;-65
2022/04/18 08:00:07;;;;;;;6.93;4.77;;;4.00;99.90;;;;;;5092003;28;20696;-68
2022/04/18 08:02:35;;;;;;;8.30;5.10;;;4.00;99.90;;;;;;5092098;28;20575;-66
2022/04/18 08:05:03;;;;;;;6.87;5.00;;;4.10;99.90;;;;;;5092012;28;20265;-65
2022/04/18 08:07:30;;;;;;;7.87;5.23;;;4.10;99.90;;;;;;5091536;28;20214;-69
2022/04/18 08:09:57;;;;;;;5.10;4.40;;;4.10;99.90;;;;;;5091732;28;20309;-67
2022/04/18 08:12:24;;;;;;;5.80;4.43;;;4.20;99.90;;;;;;5094822;28;20546;-68
2022/04/18 08:14:51;;;;;;;7.90;5.00;;;4.30;99.90;;;;;;5096124;28;20200;-69
2022/04/18 08:17:18;;;;;;;8.20;4.70;;;4.30;99.90;;;;;;5095470;28;20565;-67
2022/04/18 08:19:44;;;;;;;7.23;4.70;;;4.40;99.90;;;;;;5095817;28;20207;-66
2022/04/18 08:22:12;;;;;;;6.67;4.60;;;4.50;99.90;;;;;;5095169;28;20223;-67
2022/04/18 08:24:39;;;;;;;6.50;4.30;;;4.60;99.90;;;;;;5095249;28;20233;-66
2022/04/18 08:27:06;;;;;;;5.23;4.17;;;4.60;99.90;;;;;;5095046;28;20208;-66
2022/04/18 08:29:33;;;;;;;5.27;4.50;;;4.40;99.90;;;;;;5095447;28;20688;-67
2022/04/18 08:32:02;;;;;;;6.50;4.17;;;4.50;99.90;;;;;;5095357;28;20220;-66
2022/04/18 08:34:29;;;;;;;7.27;4.10;;;4.50;99.90;;;;;;5094937;28;20211;-66
2022/04/18 08:36:56;;;;;;;5.10;3.47;;;4.60;99.90;;;;;;5095286;28;20694;-66
2022/04/18 08:39:24;;;;;;;7.00;4.23;;;4.60;99.90;;;;;;5094814;28;20239;-66
2022/04/18 08:45:47;;;;;;;5.10;4.03;;;4.50;99.90;;;;;;4752859;28;22650;-66
2022/04/18 08:53:44;;;;;;;7.00;4.07;;;4.80;99.90;;;;;;5094615;28;20192;-66
2022/04/18 08:56:12;;;;;;;6.40;4.20;;;4.80;99.90;;;;;;5094665;28;20200;-65
2022/04/18 08:58:41;;;;;;;8.00;4.07;;;4.80;99.90;;;;;;5094832;28;20212;-66
2022/04/18 09:01:08;;;;;;;8.10;4.37;;;4.70;99.90;;;;;;5094208;28;20215;-66
2022/04/18 09:03:35;;;;;;;8.20;4.27;;;4.80;99.90;;;;;;5094244;28;20226;-67
2022/04/18 09:06:06;;;;;;;7.07;4.67;;;4.80;99.90;;;;;;5094626;28;20612;-66
2022/04/18 09:08:43;;;;;;;6.70;4.20;;;4.70;99.90;;;;;;5094657;28;20298;-66
2022/04/18 09:11:12;;;;;;;6.07;4.20;;;4.80;99.90;;;;;;5094710;28;20188;-66
2022/04/18 09:13:43;;;;;;;4.13;3.73;;;4.80;99.90;;;;;;5094616;28;20205;-67
2022/04/18 09:16:15;;;;;;;3.87;3.33;;;4.80;99.90;;;;;;5094160;28;20219;-68
2022/04/18 09:18:42;;;;;;;4.93;3.33;;;4.90;99.90;;;;;;5094224;28;20192;-66
2022/04/18 09:21:09;;;;;;;3.87;3.00;;;4.90;99.90;;;;;;5094074;28;20303;-66
2022/04/18 09:23:36;;;;;;;4.77;3.30;;;4.90;99.90;;;;;;5093856;28;20306;-67
2022/04/18 09:26:04;;;;;;;4.80;3.57;;;4.90;99.90;;;;;;5093905;28;20212;-66
2022/04/18 09:28:34;;;;;;;6.10;3.23;;;5.00;99.90;;;;;;5093969;28;20208;-67
2022/04/18 09:31:04;;;;;;;5.47;3.40;;;5.10;99.90;;;;;;5093956;28;20226;-66
2022/04/18 09:33:33;;;;;;;4.57;3.10;;;5.20;99.90;;;;;;5094333;28;20276;-65
2022/04/18 09:36:12;;;;;;;4.80;3.40;;;5.20;99.90;;;;;;5094018;28;20680;-66
2022/04/18 09:38:41;;;;;;;5.03;3.10;;;5.20;99.90;;;;;;5093675;28;20257;-67
2022/04/18 09:41:08;;;;;;;4.30;3.50;;;5.20;99.90;;;;;;5094197;28;20295;-66
2022/04/18 09:43:40;;;;;;;4.73;3.37;;;5.10;99.90;;;;;;5093807;28;20216;-67
2022/04/18 09:46:08;;;;;;;4.50;3.40;;;5.10;99.90;;;;;;5093757;28;20239;-68
2022/04/18 09:48:35;;;;;;;4.40;3.20;;;5.20;99.90;;;;;;5094158;28;20266;-67
2022/04/18 09:51:08;;;;;;;5.43;3.30;;;5.20;99.90;;;;;;5093813;28;20200;-67
2022/04/18 09:53:37;;;;;;;5.07;3.50;;;5.30;99.90;;;;;;5093449;28;20195;-65
2022/04/18 09:56:05;;;;;;;5.90;3.53;;;5.30;99.90;;;;;;5093640;28;20657;-66
2022/04/18 09:58:33;;;;;;;5.80;3.60;;;5.30;99.90;;;;;;5093776;28;20661;-66
2022/04/18 10:01:04;;;;;;;5.03;3.57;;;5.30;99.90;;;;;;5093408;28;20666;-66
2022/04/18 10:03:31;;;;;;;7.60;3.53;;;5.30;99.90;;;;;;5093555;28;20257;-66
2022/04/18 10:06:00;;;;;;;5.20;3.47;;;5.30;99.90;;;;;;5093390;28;20639;-66
2022/04/18 10:08:27;;;;;;;3.67;2.83;;;5.20;99.90;;;;;;5093062;28;20212;-67
2022/04/18 10:10:57;;;;;;;5.70;3.53;;;5.40;99.90;;;;;;5093311;28;20212;-66
2022/04/18 10:13:24;;;;;;;5.50;3.53;;;5.50;99.90;;;;;;5093144;28;20203;-66
2022/04/18 10:15:52;;;;;;;5.03;3.60;;;5.60;99.90;;;;;;5093277;28;20227;-67
2022/04/18 10:18:21;;;;;;;6.73;3.90;;;5.70;99.90;;;;;;5093413;28;20204;-67
2022/04/18 10:21:12;;;;;;;9.83;4.60;;;5.60;99.90;;;;;;5092927;28;20208;-65
2022/04/18 10:24:32;;;;;;;8.53;4.37;;;5.60;99.90;;;;;;5093134;28;20208;-66
2022/04/18 10:27:35;;;;;;;5.37;3.40;;;5.60;99.90;;;;;;5093201;28;20630;-67
2022/04/18 10:30:02;;;;;;;6.87;3.80;;;5.60;99.90;;;;;;5092998;28;20279;-66
2022/04/18 10:32:30;;;;;;;6.47;3.93;;;5.60;99.90;;;;;;5092765;28;20215;-66
2022/04/18 10:35:01;;;;;;;7.03;4.00;;;5.70;99.90;;;;;;5091834;28;20303;-67
2022/04/18 10:37:30;;;;;;;7.97;4.00;;;5.70;99.90;;;;;;5093132;28;20185;-65
2022/04/18 10:39:59;;;;;;;6.20;4.00;;;5.70;99.90;;;;;;5092601;28;20206;-67
2022/04/18 10:42:31;;;;;;;7.10;3.57;;;5.60;99.90;;;;;;5093050;28;20204;-67
2022/04/18 10:45:12;;;;;;;5.90;3.50;;;5.50;99.90;;;;;;5092987;28;20626;-66
2022/04/18 10:48:01;;;;;;;4.33;3.03;;;5.50;99.90;;;;;;5092338;28;20240;-65
2022/04/18 10:50:34;;;;;;;4.23;3.03;;;5.50;99.90;;;;;;5092668;28;20219;-66
2022/04/18 10:53:19;;;;;;;4.40;2.73;;;5.40;99.90;;;;;;5092691;28;20208;-67
2022/04/18 10:56:10;;;;;;;5.13;2.80;;;5.40;99.90;;;;;;5092163;28;20207;-65
2022/04/18 10:58:38;;;;;;;3.67;3.00;;;5.30;99.90;;;;;;5092517;28;20654;-69
2022/04/18 11:01:07;;;;;;;4.03;2.83;;;5.40;99.90;;;;;;5092651;28;20550;-66
2022/04/18 11:03:44;;;;;;;4.20;2.73;;;5.50;99.90;;;;;;5092346;28;20228;-65
2022/04/18 11:06:45;;;;;;;3.50;2.60;;;5.50;99.90;;;;;;5092618;28;20234;-66
2022/04/18 11:09:14;;;;;;;5.77;2.70;;;5.60;99.90;;;;;;5092517;28;20213;-67
2022/04/18 11:11:46;;;;;;;3.03;2.43;;;5.60;99.90;;;;;;5092169;28;20208;-68
2022/04/18 11:14:18;;;;;;;5.77;2.80;;;5.70;99.90;;;;;;5092444;28;20622;-66
2022/04/18 11:16:58;;;;;;;3.47;2.73;;;5.80;99.90;;;;;;5092237;28;20683;-66
2022/04/18 11:19:28;;;;;;;4.23;2.70;;;5.90;99.90;;;;;;5092024;28;20184;-68
2022/04/18 11:22:26;;;;;;;4.43;2.67;;;6.00;99.90;;;;;;5092154;28;20243;-66
2022/04/18 11:25:11;;;;;;;6.40;4.17;;;6.10;99.90;;;;;;5092167;28;20303;-66
2022/04/18 11:27:39;;;;;;;4.70;3.30;;;6.10;99.90;;;;;;5092168;28;20188;-66
2022/04/18 11:30:11;;;;;;;3.33;2.83;;;6.20;99.90;;;;;;5092245;28;20285;-66
2022/04/18 11:32:40;;;;;;;4.57;3.17;;;6.20;99.90;;;;;;5092079;28;20193;-66
2022/04/18 11:35:09;;;;;;;6.10;3.10;;;6.10;99.90;;;;;;5091931;28;20210;-66
2022/04/18 11:37:39;;;;;;;5.30;3.20;;;6.10;99.90;;;;;;5091747;28;20295;-66
2022/04/18 11:40:08;;;;;;;4.73;3.30;;;6.20;99.90;;;;;;5091791;28;20208;-66
2022/04/18 11:42:37;;;;;;;5.33;3.27;;;6.10;99.90;;;;;;5091952;28;20559;-68
2022/04/18 11:45:05;;;;;;;5.00;3.47;;;6.00;99.90;;;;;;5092160;28;20654;-67
2022/04/18 11:47:37;;;;;;;4.07;3.27;;;6.00;99.90;;;;;;5091235;28;20246;-67
2022/04/18 11:50:05;;;;;;;4.53;3.20;;;6.00;99.90;;;;;;5092037;28;20192;-69
2022/04/18 11:52:34;;;;;;;7.83;3.63;;;6.00;99.90;;;;;;5091792;28;20579;-71
2022/04/18 11:55:05;;;;;;;5.17;3.10;;;6.00;99.90;;;;;;5091610;28;20211;-66
2022/04/18 11:57:34;;;;;;;5.27;3.37;;;5.90;99.90;;;;;;5091445;28;20188;-66
2022/04/18 12:00:01;;;;;;;6.83;3.73;;;5.90;99.90;;;;;;5091863;28;20211;-67
2022/04/18 12:08:01;;;;;;;4.97;3.47;;;5.90;99.90;;;;;;5091748;28;20187;-67
2022/04/18 12:10:32;;;;;;;3.80;2.70;;;5.90;99.90;;;;;;5091654;28;20569;-66
2022/04/18 12:13:04;;;;;;;4.50;2.73;;;5.80;99.90;;;;;;5091802;28;20617;-66
2022/04/18 12:15:31;;;;;;;4.23;3.00;;;5.80;99.90;;;;;;5091653;28;20199;-65
2022/04/18 12:17:59;;;;;;;4.57;2.80;;;5.80;99.90;;;;;;5091611;28;20200;-67
2022/04/18 12:20:28;;;;;;;3.03;2.73;;;5.90;99.90;;;;;;5091298;28;20245;-66
2022/04/18 12:22:58;;;;;;;5.13;3.30;;;6.10;99.90;;;;;;5091248;28;20211;-68
2022/04/18 12:25:27;;;;;;;4.40;3.33;;;6.10;99.90;;;;;;5091538;28;20192;-66
2022/04/18 12:27:57;;;;;;;5.70;3.60;;;6.20;99.90;;;;;;5091301;28;20204;-66
2022/04/18 12:30:25;;;;;;;5.20;3.27;;;6.30;99.90;;;;;;5091083;28;20234;-66
2022/04/18 12:32:54;;;;;;;4.30;2.93;;;6.40;99.90;;;;;;5091325;28;20208;-67
2022/04/18 12:35:40;;;;;;;6.63;3.30;;;6.50;99.90;;;;;;5091349;28;20307;-67
2022/04/18 12:38:09;;;;;;;7.03;3.40;;;6.40;99.90;;;;;;5091510;28;20193;-66
2022/04/18 12:40:37;;;;;;;6.27;3.57;;;6.40;99.90;;;;;;5091650;28;20211;-66
2022/04/18 12:43:10;;;;;;;4.50;3.20;;;6.40;99.90;;;;;;5091060;28;20214;-67
2022/04/18 12:45:45;;;;;;;3.93;2.33;;;6.30;99.90;;;;;;5090992;28;20196;-66
2022/04/18 12:48:12;;;;;;;3.93;2.97;;;6.30;99.90;;;;;;5051198;28;20689;-67
2022/04/18 12:50:39;;;;;;;3.73;2.90;;;6.30;99.90;;;;;;5051134;28;20224;-67
2022/04/18 12:53:06;;;;;;;3.67;3.00;;;6.40;99.90;;;;;;5050765;28;20215;-66
2022/04/18 12:55:34;;;;;;;4.43;2.97;;;6.40;99.90;;;;;;5050682;28;20211;-65
2022/04/18 12:58:02;;;;;;;5.10;3.13;;;6.40;99.90;;;;;;5051617;28;20549;-67
2022/04/18 13:00:38;;;;;;;4.37;3.00;;;6.30;99.90;;;;;;5054400;28;20256;-66
2022/04/18 13:03:07;;;;;;;4.50;3.03;;;6.30;99.90;;;;;;5054586;28;20671;-66
2022/04/18 13:05:41;;;;;;;4.83;3.40;;;6.40;99.90;;;;;;5054399;28;20260;-66
2022/04/18 13:08:09;;;;;;;4.57;3.43;;;6.40;99.90;;;;;;5054653;28;20620;-66
2022/04/18 13:10:38;;;;;;;4.13;3.17;;;6.40;99.90;;;;;;5054151;28;20305;-65
2022/04/18 13:13:06;;;;;;;5.23;3.60;;;6.50;99.90;;;;;;5054440;28;20251;-69
2022/04/18 13:15:33;;;;;;;4.73;3.40;;;6.50;99.90;;;;;;5053918;28;20213;-67
2022/04/18 13:18:04;;;;;;;9.23;5.43;;;6.60;99.90;;;;;;5053839;28;20212;-66
2022/04/18 13:20:32;;;;;;;4.73;3.60;;;6.60;99.90;;;;;;5053725;28;20190;-66
2022/04/18 13:23:01;;;;;;;6.93;3.73;;;6.70;99.90;;;;;;5054204;28;20209;-66
2022/04/18 13:25:28;;;;;;;4.90;2.93;;;6.80;99.90;;;;;;5053569;28;20225;-66
2022/04/18 13:27:56;;;;;;;3.90;3.40;;;6.90;99.90;;;;;;5054048;28;20547;-67
2022/04/18 13:30:24;;;;;;;6.20;3.73;;;6.90;99.90;;;;;;5053803;28;20695;-67
2022/04/18 13:32:51;;;;;;;5.60;3.17;;;6.80;99.90;;;;;;5053974;28;20213;-66
2022/04/18 13:35:20;;;;;;;5.87;3.43;;;6.80;99.90;;;;;;5053697;28;20609;-66
2022/04/18 13:37:48;;;;;;;6.43;3.80;;;6.80;99.90;;;;;;5053745;28;20206;-66